< < Back
Terminal Aerodrome Forecast


Current Version              Previous Versions:   1  2  3  4  5  6  7  8  9  

Terminal Aerodrome Forecast

462
FTUS42 KCHS 011700
TAFSAV
TAF
KSAV 011732Z 0118/0218 VRB05KT P6SM SCT035 SCT250
     FM011900 14010KT P6SM SCT035 SCT250
     FM020100 VRB04KT P6SM FEW025 SCT200=

Latest METAR

669
SAUS80 KWBC 020700
MTRSAV
METAR KSAV 020653Z AUTO 21004KT 10SM CLR 27/24 A3007 RMK AO2 SLP183
T02670239 TSNO $


USA.gov is the U.S. government's official web portal to all federal, state and local government web resources and services.